Time;durP1;ratioP1;P1;durP2;ratioP2;P2;SDS_P1;SDS_P2;PMS_P1;PMS_P2;Temp;Humidity;BMP_temperature;BMP_pressure;BME280_temperature;BME280_humidity;BME280_pressure;Samples;Min_cycle;Max_cycle;Signal;HPM_P1;HPM_P2
2021/06/28 00:01:10;;;;;;;4.68;2.65;;;20.50;76.90;;;;;;5114992;28;20039;-63
2021/06/28 00:03:37;;;;;;;4.50;2.72;;;20.40;77.00;;;;;;5124393;27;20028;-63
2021/06/28 00:06:03;;;;;;;4.28;2.63;;;20.40;77.20;;;;;;5123616;27;20036;-63
2021/06/28 00:08:29;;;;;;;9.05;2.75;;;20.40;77.40;;;;;;5113995;28;20055;-63
2021/06/28 00:10:55;;;;;;;7.70;2.63;;;20.30;77.50;;;;;;5130720;27;20043;-63
2021/06/28 00:13:21;;;;;;;6.28;3.30;;;20.30;77.70;;;;;;5125425;27;20023;-63
2021/06/28 00:15:47;;;;;;;3.80;2.45;;;20.30;78.00;;;;;;5113933;28;20554;-63
2021/06/28 00:18:14;;;;;;;4.82;2.40;;;20.20;78.10;;;;;;5112603;28;20035;-63
2021/06/28 00:20:40;;;;;;;4.28;2.50;;;20.10;78.40;;;;;;5114340;28;20038;-63
2021/06/28 00:23:07;;;;;;;7.75;2.78;;;20.20;78.70;;;;;;5114711;28;20080;-63
2021/06/28 00:25:33;;;;;;;7.15;2.40;;;20.20;79.00;;;;;;5113513;28;20476;-63
2021/06/28 00:27:58;;;;;;;8.18;3.03;;;20.10;79.10;;;;;;5113325;28;20027;-63
2021/06/28 00:30:24;;;;;;;6.97;2.80;;;20.10;79.30;;;;;;5113173;28;20096;-63
2021/06/28 00:32:51;;;;;;;5.57;2.90;;;20.00;79.40;;;;;;5113319;28;20035;-63
2021/06/28 00:35:18;;;;;;;5.97;3.20;;;20.00;79.60;;;;;;5125873;27;20367;-63
2021/06/28 00:37:46;;;;;;;8.18;3.15;;;20.00;79.90;;;;;;5116637;27;20031;-63
2021/06/28 00:40:13;;;;;;;7.05;3.10;;;19.90;80.00;;;;;;5104314;27;20028;-64
2021/06/28 00:42:39;;;;;;;9.38;3.22;;;19.90;80.20;;;;;;5114299;27;20024;-64
2021/06/28 00:45:20;;;;;;;7.07;3.15;;;19.90;80.30;;;;;;5110280;27;20030;-63
2021/06/28 00:47:46;;;;;;;7.78;3.28;;;19.80;80.30;;;;;;5112194;28;20035;-64
2021/06/28 00:50:13;;;;;;;7.10;3.47;;;19.80;80.40;;;;;;5113810;28;20023;-64
2021/06/28 00:52:40;;;;;;;6.55;4.30;;;19.80;80.70;;;;;;5107637;28;20036;-63
2021/06/28 00:55:10;;;;;;;9.18;4.20;;;19.80;80.90;;;;;;5113255;28;20471;-64
2021/06/28 00:57:36;;;;;;;8.20;4.25;;;19.70;80.90;;;;;;5113601;28;20065;-64
2021/06/28 01:00:05;;;;;;;8.80;3.95;;;19.80;81.00;;;;;;5112659;28;20116;-64
2021/06/28 01:02:32;;;;;;;9.40;3.70;;;19.70;81.10;;;;;;5115408;27;20507;-64
2021/06/28 01:04:57;;;;;;;6.10;4.00;;;19.70;81.20;;;;;;5113998;28;20031;-64
2021/06/28 01:07:23;;;;;;;5.38;3.90;;;19.70;81.30;;;;;;5113101;28;20103;-64
2021/06/28 01:09:49;;;;;;;7.20;3.67;;;19.70;81.30;;;;;;5113780;28;20087;-64
2021/06/28 01:12:15;;;;;;;7.60;3.67;;;19.70;81.40;;;;;;5123172;27;20039;-64
2021/06/28 01:14:44;;;;;;;11.18;3.45;;;19.60;81.40;;;;;;5095950;28;20031;-64
2021/06/28 01:17:12;;;;;;;8.02;3.85;;;19.60;81.40;;;;;;5112881;28;20081;-64
2021/06/28 01:19:44;;;;;;;8.10;3.83;;;19.60;81.50;;;;;;5112850;28;20016;-64
2021/06/28 01:22:13;;;;;;;7.97;4.15;;;19.60;81.60;;;;;;5113447;28;20023;-64
2021/06/28 01:24:39;;;;;;;6.93;4.10;;;19.60;81.60;;;;;;5114013;28;20034;-64
2021/06/28 01:27:06;;;;;;;9.18;3.72;;;19.60;81.70;;;;;;5112740;28;20032;-64
2021/06/28 01:29:32;;;;;;;7.38;3.67;;;19.60;81.80;;;;;;5113900;28;20015;-64
2021/06/28 01:31:58;;;;;;;10.13;4.53;;;19.60;81.90;;;;;;5114007;28;20119;-64
2021/06/28 01:34:33;;;;;;;10.57;4.45;;;19.60;82.00;;;;;;5112162;28;20122;-64
2021/06/28 01:37:31;;;;;;;7.18;4.68;;;19.60;82.00;;;;;;5113969;28;20035;-64
2021/06/28 01:40:00;;;;;;;11.90;4.57;;;19.60;82.10;;;;;;5090834;28;20051;-64
2021/06/28 01:42:27;;;;;;;6.68;4.70;;;19.50;82.10;;;;;;5112537;28;20024;-64
2021/06/28 01:44:53;;;;;;;11.43;5.25;;;19.50;82.20;;;;;;5112905;28;20036;-63
2021/06/28 01:47:23;;;;;;;9.38;5.00;;;19.50;82.20;;;;;;5124711;27;20019;-64
2021/06/28 01:49:49;;;;;;;10.90;5.57;;;19.50;82.30;;;;;;5112622;28;20035;-64
2021/06/28 01:52:14;;;;;;;7.00;4.88;;;19.50;82.20;;;;;;5113784;28;20130;-63
2021/06/28 01:54:41;;;;;;;14.50;5.13;;;19.50;82.20;;;;;;5111613;28;20031;-63
2021/06/28 01:57:07;;;;;;;12.02;6.15;;;19.50;82.20;;;;;;5112214;28;20122;-64
2021/06/28 01:59:35;;;;;;;13.25;5.57;;;19.40;82.20;;;;;;5113088;28;20028;-64
2021/06/28 02:02:03;;;;;;;12.55;5.60;;;19.50;82.30;;;;;;5111967;28;20036;-63
2021/06/28 02:04:29;;;;;;;11.00;5.57;;;19.40;82.10;;;;;;5113000;28;20026;-64
2021/06/28 02:06:56;;;;;;;7.90;5.05;;;19.50;82.20;;;;;;5105926;28;20032;-65
2021/06/28 02:09:22;;;;;;;9.70;5.65;;;19.40;82.10;;;;;;5112480;28;20040;-64
2021/06/28 02:11:49;;;;;;;9.98;5.10;;;19.40;82.20;;;;;;5111798;28;20047;-64
2021/06/28 02:14:27;;;;;;;8.00;4.95;;;19.40;82.20;;;;;;5115690;27;20024;-63
2021/06/28 02:16:53;;;;;;;7.55;4.90;;;19.40;82.20;;;;;;5114696;27;20036;-64
2021/06/28 02:19:19;;;;;;;11.25;5.82;;;19.40;82.20;;;;;;5109091;28;20028;-63
2021/06/28 02:21:46;;;;;;;10.32;5.25;;;19.40;82.20;;;;;;5114193;27;20027;-64
2021/06/28 02:24:13;;;;;;;10.40;5.18;;;19.40;82.20;;;;;;5117511;28;20031;-64
2021/06/28 02:26:41;;;;;;;7.78;4.93;;;19.30;82.20;;;;;;5113187;28;20038;-64
2021/06/28 02:29:07;;;;;;;14.55;5.05;;;19.40;82.30;;;;;;5111940;28;20098;-64
2021/06/28 02:31:34;;;;;;;9.63;4.60;;;19.30;82.90;;;;;;5111459;28;20032;-64
2021/06/28 02:33:59;;;;;;;7.07;4.03;;;19.30;82.30;;;;;;5113238;28;20031;-64
2021/06/28 02:36:27;;;;;;;9.63;4.70;;;19.30;82.30;;;;;;5111791;28;20103;-64
2021/06/28 02:38:54;;;;;;;6.25;4.43;;;19.30;82.40;;;;;;5111635;28;20028;-64
2021/06/28 02:41:20;;;;;;;12.05;4.57;;;19.40;82.50;;;;;;5110867;28;20428;-64
2021/06/28 02:43:48;;;;;;;9.57;4.45;;;19.30;82.60;;;;;;5112163;28;20030;-64
2021/06/28 02:46:14;;;;;;;10.70;5.05;;;19.30;82.70;;;;;;5112798;28;20181;-64
2021/06/28 02:48:40;;;;;;;10.02;4.80;;;19.30;82.80;;;;;;5112976;28;20466;-64
2021/06/28 02:51:12;;;;;;;12.48;3.92;;;19.30;82.90;;;;;;5111959;28;20040;-64
2021/06/28 02:53:38;;;;;;;13.48;5.00;;;19.20;82.90;;;;;;5113247;28;20023;-64
2021/06/28 02:56:14;;;;;;;9.75;4.45;;;19.20;82.90;;;;;;5111802;28;20387;-64
2021/06/28 02:58:40;;;;;;;8.43;4.28;;;19.20;83.00;;;;;;5111506;28;20467;-64
2021/06/28 03:01:06;;;;;;;8.80;4.10;;;19.20;83.10;;;;;;5112422;28;20028;-63
2021/06/28 03:03:32;;;;;;;7.60;4.10;;;19.20;83.10;;;;;;5113166;28;20462;-64
2021/06/28 03:05:58;;;;;;;9.60;4.45;;;19.20;83.20;;;;;;5114336;28;20509;-64
2021/06/28 03:08:24;;;;;;;8.65;4.30;;;19.20;83.30;;;;;;5119881;28;20024;-64
2021/06/28 03:10:49;;;;;;;9.95;4.53;;;19.20;83.20;;;;;;5115269;28;20043;-64
2021/06/28 03:13:15;;;;;;;11.07;4.20;;;19.20;83.30;;;;;;5111012;28;20051;-64
2021/06/28 03:15:41;;;;;;;13.65;4.60;;;19.10;83.30;;;;;;5111741;28;20061;-64
2021/06/28 03:18:07;;;;;;;9.07;4.28;;;19.10;83.30;;;;;;5107220;28;20024;-63
2021/06/28 03:20:35;;;;;;;10.40;4.32;;;19.10;83.30;;;;;;5111775;28;20146;-63
2021/06/28 03:23:01;;;;;;;12.10;4.75;;;19.20;83.30;;;;;;5111305;28;20057;-64
2021/06/28 03:25:27;;;;;;;7.05;4.43;;;19.10;83.20;;;;;;5100388;28;20039;-64
2021/06/28 03:27:53;;;;;;;6.53;4.47;;;19.20;83.30;;;;;;5113896;27;20374;-64
2021/06/28 03:30:19;;;;;;;8.55;4.75;;;19.10;83.30;;;;;;5117828;27;20023;-64
2021/06/28 03:32:45;;;;;;;8.50;4.72;;;19.10;83.30;;;;;;5127894;27;20034;-64
2021/06/28 03:35:12;;;;;;;8.88;5.00;;;19.10;83.40;;;;;;5127467;27;20027;-64
2021/06/28 03:37:39;;;;;;;8.00;4.75;;;19.10;83.40;;;;;;5122777;27;20032;-63
2021/06/28 03:40:10;;;;;;;9.45;4.80;;;19.10;83.50;;;;;;5124097;27;20742;-64
2021/06/28 03:42:37;;;;;;;7.93;4.10;;;19.10;83.60;;;;;;5123982;27;20106;-64
2021/06/28 03:45:05;;;;;;;10.13;4.40;;;19.10;83.70;;;;;;5125555;27;20485;-63
2021/06/28 03:47:31;;;;;;;8.55;4.70;;;19.10;83.80;;;;;;5120241;27;20089;-63
2021/06/28 03:49:56;;;;;;;13.15;4.50;;;19.10;84.00;;;;;;5120496;27;20498;-64
2021/06/28 03:52:23;;;;;;;10.80;4.47;;;19.10;84.10;;;;;;5121414;27;20504;-64
2021/06/28 03:54:51;;;;;;;7.55;4.00;;;19.10;84.10;;;;;;5097354;28;20055;-64
2021/06/28 03:57:17;;;;;;;10.40;4.13;;;19.10;84.30;;;;;;5123887;27;20433;-63
2021/06/28 03:59:46;;;;;;;9.50;4.80;;;19.00;84.50;;;;;;5125904;27;20046;-63
2021/06/28 04:02:11;;;;;;;14.02;4.38;;;19.10;84.70;;;;;;5116156;27;20498;-67
2021/06/28 04:04:37;;;;;;;8.80;4.80;;;19.00;84.80;;;;;;5113115;27;20039;-63
2021/06/28 04:07:03;;;;;;;14.10;4.68;;;19.10;85.10;;;;;;5118724;27;20027;-63
2021/06/28 04:09:28;;;;;;;9.07;4.28;;;19.10;85.20;;;;;;5113815;28;20067;-63
2021/06/28 04:11:54;;;;;;;7.70;4.43;;;19.10;85.30;;;;;;5116828;27;20110;-62
2021/06/28 04:14:20;;;;;;;16.13;4.45;;;19.10;85.30;;;;;;5118696;27;20024;-63
2021/06/28 04:16:46;;;;;;;8.70;4.57;;;19.10;85.40;;;;;;5118836;27;20039;-63
2021/06/28 04:19:12;;;;;;;14.82;4.88;;;19.10;85.40;;;;;;5125851;27;20042;-63
2021/06/28 04:21:37;;;;;;;11.77;4.45;;;19.10;85.60;;;;;;5124943;27;20518;-63
2021/06/28 04:24:04;;;;;;;11.35;4.40;;;19.20;85.70;;;;;;5109841;27;20464;-63
2021/06/28 04:26:31;;;;;;;14.57;5.15;;;19.20;85.80;;;;;;5115916;27;20031;-63
2021/06/28 04:28:57;;;;;;;9.88;4.28;;;19.20;85.80;;;;;;5120403;27;20028;-63
2021/06/28 04:31:24;;;;;;;9.95;4.40;;;19.20;85.90;;;;;;5114070;28;20047;-63
2021/06/28 04:33:49;;;;;;;9.90;4.22;;;19.20;86.00;;;;;;5114378;28;20208;-63
2021/06/28 04:36:15;;;;;;;16.33;4.90;;;19.20;86.10;;;;;;5117898;27;20380;-63
2021/06/28 04:38:41;;;;;;;8.23;4.75;;;19.20;86.80;;;;;;5113028;28;20467;-63
2021/06/28 04:41:06;;;;;;;10.98;4.55;;;19.20;86.20;;;;;;5106612;28;20069;-63
2021/06/28 04:43:32;;;;;;;16.30;5.63;;;19.30;86.30;;;;;;5107089;28;20034;-63
2021/06/28 04:45:57;;;;;;;13.18;5.00;;;19.20;86.30;;;;;;5117588;27;20036;-63
2021/06/28 04:48:23;;;;;;;9.45;4.63;;;19.30;86.30;;;;;;5094791;28;20034;-63
2021/06/28 04:50:49;;;;;;;12.65;4.43;;;19.30;86.30;;;;;;5114168;28;20034;-64
2021/06/28 04:53:15;;;;;;;9.10;4.65;;;19.30;86.30;;;;;;5104841;28;20031;-63
2021/06/28 04:55:41;;;;;;;9.45;4.32;;;19.30;86.30;;;;;;5112479;28;20087;-63
2021/06/28 04:58:06;;;;;;;8.38;4.47;;;19.30;86.40;;;;;;5113582;28;20055;-63
2021/06/28 05:00:32;;;;;;;13.90;5.20;;;19.30;86.40;;;;;;5113605;28;20131;-63
2021/06/28 05:02:58;;;;;;;13.65;4.82;;;19.30;86.50;;;;;;5112783;28;20038;-63
2021/06/28 05:05:24;;;;;;;14.40;4.72;;;19.30;86.70;;;;;;5105831;28;20562;-63
2021/06/28 05:07:49;;;;;;;12.73;4.07;;;19.30;86.90;;;;;;5112422;28;20043;-63
2021/06/28 05:10:15;;;;;;;9.93;4.28;;;19.30;87.20;;;;;;5113499;28;20055;-63
2021/06/28 05:12:42;;;;;;;11.95;4.53;;;19.40;87.20;;;;;;5112975;28;20040;-63
2021/06/28 05:15:09;;;;;;;11.27;4.57;;;19.40;87.30;;;;;;5095265;28;20027;-63
2021/06/28 05:17:41;;;;;;;7.88;4.03;;;19.40;87.00;;;;;;5111527;27;20040;-63
2021/06/28 05:20:10;;;;;;;10.32;4.20;;;19.40;86.90;;;;;;5104483;28;20027;-63
2021/06/28 05:22:37;;;;;;;12.27;4.45;;;19.50;86.90;;;;;;5117060;27;20058;-63
2021/06/28 05:25:04;;;;;;;12.70;4.72;;;19.60;86.80;;;;;;5120043;27;20024;-63
2021/06/28 05:27:29;;;;;;;14.02;5.45;;;19.60;86.70;;;;;;5111949;28;21295;-64
2021/06/28 05:29:55;;;;;;;8.38;4.00;;;19.60;86.70;;;;;;5122340;27;20352;-64
2021/06/28 05:32:25;;;;;;;12.85;4.25;;;19.70;86.70;;;;;;5122657;27;20039;-64
2021/06/28 05:34:52;;;;;;;10.57;4.75;;;19.70;86.80;;;;;;5115305;27;20116;-63
2021/06/28 05:37:19;;;;;;;9.85;4.40;;;19.70;86.70;;;;;;5117376;27;20514;-63
2021/06/28 05:39:49;;;;;;;12.25;4.60;;;19.70;86.70;;;;;;5115023;27;20428;-63
2021/06/28 05:42:15;;;;;;;17.35;4.60;;;19.70;86.70;;;;;;5119379;27;20035;-64
2021/06/28 05:44:41;;;;;;;6.40;3.92;;;19.70;86.80;;;;;;5120384;27;20027;-63
2021/06/28 05:47:07;;;;;;;11.73;4.10;;;19.70;86.70;;;;;;5115147;27;20035;-63
2021/06/28 05:49:36;;;;;;;9.82;4.70;;;19.80;86.80;;;;;;5121823;27;20475;-63
2021/06/28 05:52:02;;;;;;;12.52;4.57;;;19.80;86.80;;;;;;5124128;27;20506;-64
2021/06/28 05:54:28;;;;;;;11.88;4.68;;;19.80;86.90;;;;;;5115141;27;20027;-63
2021/06/28 05:56:54;;;;;;;10.65;4.28;;;19.80;86.90;;;;;;5113311;28;20036;-64
2021/06/28 05:59:22;;;;;;;7.57;4.47;;;19.80;86.70;;;;;;5122300;27;20072;-64
2021/06/28 06:01:48;;;;;;;14.13;4.18;;;19.80;86.80;;;;;;5116053;27;20474;-64
2021/06/28 06:04:14;;;;;;;10.07;4.10;;;19.80;86.60;;;;;;5125400;27;20114;-64
2021/06/28 06:06:44;;;;;;;11.20;4.47;;;19.80;86.40;;;;;;5122225;27;20111;-65
2021/06/28 06:09:10;;;;;;;9.90;5.32;;;19.90;86.50;;;;;;5115240;27;20059;-64
2021/06/28 06:11:36;;;;;;;10.52;4.65;;;19.90;86.50;;;;;;5119704;27;20043;-65
2021/06/28 06:14:05;;;;;;;13.77;5.93;;;19.90;86.30;;;;;;5114049;27;20034;-64
2021/06/28 06:16:30;;;;;;;12.73;5.57;;;20.00;86.40;;;;;;5118801;27;20443;-64
2021/06/28 06:18:56;;;;;;;13.18;5.38;;;19.90;86.20;;;;;;5112470;27;20031;-64
2021/06/28 06:21:23;;;;;;;11.50;5.32;;;20.00;86.30;;;;;;5113968;28;20080;-64
2021/06/28 06:23:49;;;;;;;8.32;4.50;;;20.00;86.30;;;;;;5118114;27;20032;-65
2021/06/28 06:26:19;;;;;;;11.80;4.72;;;20.00;86.30;;;;;;5113546;28;20034;-63
2021/06/28 06:28:45;;;;;;;9.60;4.68;;;20.00;86.50;;;;;;5107644;27;20024;-64
2021/06/28 06:31:12;;;;;;;8.40;4.88;;;20.10;86.50;;;;;;5109513;28;20031;-63
2021/06/28 06:33:38;;;;;;;13.38;5.68;;;20.00;86.50;;;;;;5112754;28;20024;-64
2021/06/28 06:36:05;;;;;;;12.43;5.00;;;20.10;86.50;;;;;;5121493;27;20042;-64
2021/06/28 06:38:30;;;;;;;8.63;4.75;;;20.10;86.50;;;;;;5121821;28;20027;-64
2021/06/28 06:40:56;;;;;;;9.80;4.63;;;20.10;86.60;;;;;;5121798;28;20482;-64
2021/06/28 06:43:22;;;;;;;10.13;4.93;;;20.10;86.40;;;;;;5116998;28;20019;-64
2021/06/28 06:45:49;;;;;;;13.02;5.32;;;20.10;86.50;;;;;;5101194;28;20035;-64
2021/06/28 06:48:15;;;;;;;9.40;5.28;;;20.10;86.60;;;;;;5120133;28;20547;-64
2021/06/28 06:50:44;;;;;;;15.35;5.90;;;20.10;86.60;;;;;;5117681;28;20031;-63
2021/06/28 06:53:09;;;;;;;10.60;5.18;;;20.20;86.60;;;;;;5117768;28;20023;-63
2021/06/28 06:55:35;;;;;;;7.68;5.07;;;20.20;86.80;;;;;;5123263;28;20076;-63
2021/06/28 06:58:09;;;;;;;10.85;5.25;;;20.20;86.70;;;;;;5123119;28;20027;-64
2021/06/28 07:00:37;;;;;;;6.75;5.03;;;20.20;86.80;;;;;;5118462;27;20055;-64
2021/06/28 07:03:03;;;;;;;13.13;5.35;;;20.30;86.60;;;;;;5123915;27;20537;-64
2021/06/28 07:05:29;;;;;;;8.32;4.82;;;20.40;86.80;;;;;;5119720;27;20110;-64
2021/06/28 07:07:55;;;;;;;10.50;5.20;;;20.40;86.60;;;;;;5123100;27;20110;-64
2021/06/28 07:10:21;;;;;;;8.57;5.22;;;20.50;86.60;;;;;;5115400;27;20082;-63
2021/06/28 07:12:47;;;;;;;10.88;4.95;;;20.50;86.40;;;;;;5123193;27;20036;-64
2021/06/28 07:15:15;;;;;;;10.35;5.75;;;20.60;86.50;;;;;;5121458;27;20455;-63
2021/06/28 07:17:44;;;;;;;15.82;6.20;;;20.60;86.80;;;;;;5124527;27;20042;-64
2021/06/28 07:20:13;;;;;;;12.68;5.80;;;20.70;86.90;;;;;;5121758;27;20031;-64
2021/06/28 07:22:39;;;;;;;11.07;6.15;;;20.70;86.90;;;;;;5119596;27;20039;-64
2021/06/28 07:25:08;;;;;;;10.02;6.40;;;20.70;86.70;;;;;;5122660;27;20107;-63
2021/06/28 07:27:37;;;;;;;11.38;5.90;;;20.80;86.60;;;;;;5124939;27;20158;-63
2021/06/28 07:30:06;;;;;;;9.55;6.07;;;20.90;86.50;;;;;;5125280;27;20129;-64
2021/06/28 07:32:31;;;;;;;11.77;6.03;;;20.90;86.50;;;;;;5127765;27;20073;-64
2021/06/28 07:34:57;;;;;;;10.75;6.55;;;20.90;86.40;;;;;;5125726;27;20075;-63
2021/06/28 07:37:23;;;;;;;13.68;6.90;;;21.00;86.30;;;;;;5123468;27;20023;-64
2021/06/28 07:39:49;;;;;;;13.50;6.80;;;21.10;86.10;;;;;;5123628;27;20042;-66
2021/06/28 07:42:17;;;;;;;11.07;5.97;;;21.10;85.90;;;;;;5122160;27;20035;-65
2021/06/28 07:44:43;;;;;;;12.30;6.68;;;21.20;86.10;;;;;;5114136;28;20027;-65
2021/06/28 07:47:09;;;;;;;14.43;7.10;;;21.20;85.70;;;;;;5112970;28;20027;-65
2021/06/28 07:49:34;;;;;;;10.60;6.63;;;21.30;85.60;;;;;;5112943;28;20027;-65
2021/06/28 07:52:00;;;;;;;14.48;7.38;;;21.30;85.50;;;;;;5104830;28;20035;-65
2021/06/28 07:54:27;;;;;;;13.48;7.25;;;21.40;85.30;;;;;;5111590;28;20055;-65
2021/06/28 07:56:53;;;;;;;13.75;6.97;;;21.40;84.90;;;;;;5114855;27;20076;-64
2021/06/28 07:59:19;;;;;;;15.95;5.95;;;21.50;85.50;;;;;;5113764;28;20032;-63
2021/06/28 08:01:45;;;;;;;12.60;7.78;;;21.50;85.60;;;;;;5106383;28;20050;-63
2021/06/28 08:04:11;;;;;;;12.38;6.90;;;21.60;85.60;;;;;;5111643;27;20584;-63
2021/06/28 08:06:39;;;;;;;12.48;6.78;;;21.60;85.40;;;;;;5126029;27;20032;-63
2021/06/28 08:09:08;;;;;;;10.60;6.43;;;21.60;86.20;;;;;;5112638;28;20027;-63
2021/06/28 08:11:33;;;;;;;10.35;6.88;;;21.60;86.00;;;;;;5112166;28;20051;-63
2021/06/28 08:14:00;;;;;;;12.98;7.95;;;21.70;86.00;;;;;;5123902;27;20030;-63
2021/06/28 08:16:26;;;;;;;15.38;7.88;;;21.70;85.10;;;;;;5113625;27;20498;-63
2021/06/28 08:18:53;;;;;;;14.57;7.20;;;21.80;85.10;;;;;;5120264;27;20031;-63
2021/06/28 08:21:21;;;;;;;14.77;7.57;;;21.90;85.20;;;;;;5116250;27;20035;-63
2021/06/28 08:23:48;;;;;;;11.68;7.18;;;21.90;85.20;;;;;;5119586;27;20046;-63
2021/06/28 08:26:14;;;;;;;15.52;7.28;;;22.00;84.90;;;;;;5115408;27;20478;-64
2021/06/28 08:28:40;;;;;;;12.10;7.15;;;22.00;84.70;;;;;;5116360;27;20051;-63
2021/06/28 08:31:06;;;;;;;14.10;7.65;;;22.10;84.80;;;;;;5124402;27;20035;-64
2021/06/28 08:33:32;;;;;;;10.55;7.53;;;22.10;84.10;;;;;;5122289;27;20042;-64
2021/06/28 08:35:59;;;;;;;17.02;7.57;;;22.20;84.30;;;;;;5118381;27;20245;-63
2021/06/28 08:38:25;;;;;;;12.68;7.57;;;22.20;84.50;;;;;;5118683;27;20478;-64
2021/06/28 08:40:52;;;;;;;11.80;8.07;;;22.30;83.90;;;;;;5125709;27;20031;-64
2021/06/28 08:43:18;;;;;;;12.05;7.38;;;22.30;84.00;;;;;;5113324;27;20058;-64
2021/06/28 08:45:44;;;;;;;10.27;7.55;;;22.40;84.10;;;;;;5118404;27;20466;-64
2021/06/28 08:48:10;;;;;;;11.38;7.35;;;22.50;84.00;;;;;;5117910;27;20035;-63
2021/06/28 08:50:39;;;;;;;10.82;7.55;;;22.60;84.00;;;;;;5117606;27;20039;-64
2021/06/28 08:53:06;;;;;;;14.68;7.70;;;22.60;83.50;;;;;;5114909;27;20457;-64
2021/06/28 08:55:33;;;;;;;11.55;6.57;;;22.70;84.10;;;;;;5110997;28;20030;-64
2021/06/28 08:57:59;;;;;;;14.30;7.85;;;22.80;83.80;;;;;;5120355;27;20031;-65
2021/06/28 09:00:24;;;;;;;16.17;7.97;;;22.80;83.40;;;;;;5107249;27;20020;-64
2021/06/28 09:02:56;;;;;;;14.95;8.15;;;22.90;83.10;;;;;;5115313;27;20066;-64
2021/06/28 09:05:22;;;;;;;10.93;7.55;;;22.90;83.40;;;;;;5117618;27;20059;-64
2021/06/28 09:07:49;;;;;;;14.77;8.63;;;22.90;83.00;;;;;;5105673;28;20551;-64
2021/06/28 09:10:34;;;;;;;11.77;8.27;;;23.00;82.40;;;;;;5110196;28;20067;-64
2021/06/28 09:13:00;;;;;;;15.02;8.85;;;23.10;82.70;;;;;;5110716;27;20028;-65
2021/06/28 09:15:43;;;;;;;13.43;9.02;;;23.10;82.30;;;;;;5116281;27;20034;-65
2021/06/28 09:18:20;;;;;;;13.73;8.50;;;23.10;82.00;;;;;;5119823;27;20031;-64
2021/06/28 09:20:47;;;;;;;16.27;9.90;;;23.20;82.40;;;;;;5112175;27;20020;-64
2021/06/28 09:23:31;;;;;;;11.65;7.90;;;23.20;82.00;;;;;;5112930;27;20027;-65
2021/06/28 09:25:58;;;;;;;11.02;7.65;;;23.20;82.60;;;;;;5108407;28;20026;-65
2021/06/28 09:28:43;;;;;;;12.10;7.88;;;23.30;83.10;;;;;;5113715;27;20039;-65
2021/06/28 09:31:15;;;;;;;10.57;7.38;;;23.30;82.60;;;;;;5118757;27;20039;-65
2021/06/28 09:33:41;;;;;;;18.50;9.10;;;23.40;82.40;;;;;;5110575;28;20019;-64
2021/06/28 09:36:20;;;;;;;10.73;7.30;;;23.50;82.00;;;;;;5108167;27;20035;-64
2021/06/28 09:38:46;;;;;;;13.80;7.57;;;23.50;82.30;;;;;;5112027;27;20092;-64
2021/06/28 09:41:24;;;;;;;14.45;8.93;;;23.60;81.90;;;;;;5106315;28;20036;-64
2021/06/28 09:43:51;;;;;;;12.82;8.80;;;23.70;81.30;;;;;;5112129;27;20059;-64
2021/06/28 09:46:22;;;;;;;12.73;9.13;;;23.70;80.90;;;;;;5121313;27;20035;-64
2021/06/28 09:48:50;;;;;;;14.25;9.25;;;23.80;81.10;;;;;;5116875;27;20031;-64
2021/06/28 09:51:20;;;;;;;18.13;9.13;;;23.80;80.00;;;;;;5112679;27;20036;-64
2021/06/28 09:53:51;;;;;;;14.30;8.80;;;23.90;80.30;;;;;;5117224;27;20039;-64
2021/06/28 09:56:31;;;;;;;13.13;9.05;;;24.00;80.30;;;;;;5115798;27;20132;-63
2021/06/28 09:58:57;;;;;;;15.43;10.73;;;24.00;80.00;;;;;;5112224;27;20515;-64
2021/06/28 10:01:27;;;;;;;14.85;9.45;;;24.10;80.70;;;;;;5114462;27;20032;-63
2021/06/28 10:03:55;;;;;;;14.57;8.77;;;24.10;80.20;;;;;;5115086;27;20478;-64
2021/06/28 10:09:15;;;;;;;15.48;8.50;;;24.20;80.10;;;;;;5108153;28;20048;-64
2021/06/28 10:11:47;;;;;;;18.60;10.00;;;24.30;79.80;;;;;;5094923;27;20039;-64
2021/06/28 10:14:37;;;;;;;16.92;8.40;;;24.30;79.60;;;;;;5116885;27;20530;-63
2021/06/28 10:17:03;;;;;;;14.23;9.20;;;24.40;79.60;;;;;;5114377;27;20031;-63
2021/06/28 10:19:29;;;;;;;14.77;7.68;;;24.40;79.40;;;;;;5120964;27;20028;-63
2021/06/28 10:21:58;;;;;;;13.15;8.45;;;24.50;79.10;;;;;;5110152;27;20028;-63
2021/06/28 10:24:23;;;;;;;14.23;7.63;;;24.50;78.70;;;;;;5100252;27;20082;-63
2021/06/28 10:26:52;;;;;;;12.30;8.45;;;24.60;78.80;;;;;;5115581;27;20462;-64
2021/06/28 10:29:20;;;;;;;18.42;8.77;;;24.70;79.10;;;;;;5116527;27;20058;-64
2021/06/28 10:31:46;;;;;;;14.35;9.15;;;24.70;78.90;;;;;;5120086;28;20042;-65
2021/06/28 10:34:13;;;;;;;13.48;8.35;;;24.80;78.70;;;;;;5118899;27;20023;-65
2021/06/28 10:36:39;;;;;;;13.88;8.95;;;24.80;78.10;;;;;;5111112;28;20386;-65
2021/06/28 10:39:10;;;;;;;12.63;8.35;;;24.90;78.10;;;;;;5107179;28;20522;-64
2021/06/28 10:41:40;;;;;;;15.35;8.15;;;24.90;78.10;;;;;;5113006;28;20063;-65
2021/06/28 10:44:14;;;;;;;13.30;8.88;;;25.00;78.30;;;;;;5112936;28;20000;-67
2021/06/28 10:46:43;;;;;;;12.98;8.73;;;25.00;77.60;;;;;;5110467;28;20076;-65
2021/06/28 10:49:10;;;;;;;12.48;7.95;;;25.10;77.00;;;;;;5111706;28;20902;-64
2021/06/28 10:51:48;;;;;;;15.52;8.70;;;25.10;77.20;;;;;;5111065;28;20032;-65
2021/06/28 10:54:32;;;;;;;9.93;7.43;;;25.20;77.00;;;;;;5112224;28;20485;-65
2021/06/28 10:56:59;;;;;;;13.95;8.55;;;25.20;77.30;;;;;;5113177;28;20031;-65
2021/06/28 10:59:46;;;;;;;13.38;8.55;;;25.30;76.80;;;;;;5112999;28;20038;-65
2021/06/28 11:02:19;;;;;;;11.10;8.60;;;25.40;77.00;;;;;;5127114;28;20039;-65
2021/06/28 11:04:56;;;;;;;13.88;8.85;;;25.50;76.60;;;;;;5109994;28;20471;-65
2021/06/28 11:07:22;;;;;;;12.30;8.65;;;25.50;75.70;;;;;;5110799;28;20038;-65
2021/06/28 11:09:57;;;;;;;14.75;8.40;;;25.60;75.90;;;;;;5113120;28;20413;-65
2021/06/28 11:12:31;;;;;;;15.38;8.82;;;25.60;76.20;;;;;;5109312;28;20215;-65
2021/06/28 11:15:03;;;;;;;11.98;7.50;;;25.60;75.40;;;;;;5111248;28;20046;-64
2021/06/28 11:17:44;;;;;;;21.05;9.00;;;25.60;75.20;;;;;;5112307;28;20076;-64
2021/06/28 11:20:40;;;;;;;12.60;8.05;;;25.70;75.00;;;;;;5114647;28;20136;-64
2021/06/28 11:23:16;;;;;;;10.35;7.53;;;25.70;75.00;;;;;;5114960;28;20024;-65
2021/06/28 11:25:56;;;;;;;12.30;8.32;;;25.80;74.30;;;;;;5099610;28;20442;-65
2021/06/28 11:28:42;;;;;;;16.77;7.22;;;25.90;73.90;;;;;;5098859;28;20027;-65
2021/06/28 11:31:16;;;;;;;10.38;6.55;;;25.90;73.50;;;;;;5109231;28;20063;-64
2021/06/28 11:33:46;;;;;;;12.57;7.03;;;25.90;73.60;;;;;;5111626;28;20738;-65
2021/06/28 11:36:29;;;;;;;10.43;7.05;;;26.00;74.50;;;;;;5082531;28;20028;-65
2021/06/28 11:38:56;;;;;;;10.25;7.20;;;26.00;74.00;;;;;;5116868;28;20110;-65
2021/06/28 11:41:28;;;;;;;9.07;6.25;;;26.00;73.50;;;;;;5113895;28;20041;-65
2021/06/28 11:44:02;;;;;;;8.30;6.50;;;26.00;72.80;;;;;;5122758;28;20483;-65
2021/06/28 11:46:30;;;;;;;10.77;6.57;;;26.10;73.00;;;;;;5112987;28;20386;-65
2021/06/28 11:49:03;;;;;;;10.60;6.43;;;26.20;73.80;;;;;;5121276;27;20028;-65
2021/06/28 11:51:46;;;;;;;10.40;6.57;;;26.20;72.80;;;;;;5117213;27;20430;-65
2021/06/28 11:54:14;;;;;;;12.25;8.35;;;26.20;72.20;;;;;;5112726;28;20421;-65
2021/06/28 11:57:00;;;;;;;15.90;8.55;;;26.20;74.40;;;;;;5113199;28;20111;-65
2021/06/28 11:59:29;;;;;;;15.85;6.93;;;26.30;75.50;;;;;;5112052;28;20034;-64
2021/06/28 12:01:57;;;;;;;13.85;7.57;;;26.30;75.40;;;;;;5112109;28;20058;-65
2021/06/28 12:04:26;;;;;;;12.88;7.70;;;26.30;76.60;;;;;;5118917;27;20035;-65
2021/06/28 12:06:54;;;;;;;13.45;7.85;;;26.30;75.60;;;;;;5110680;28;20030;-64
2021/06/28 12:09:25;;;;;;;14.43;7.93;;;26.20;76.60;;;;;;5114368;28;20364;-65
2021/06/28 12:11:54;;;;;;;14.02;7.75;;;26.30;77.10;;;;;;5116393;27;20670;-65
2021/06/28 12:14:42;;;;;;;9.57;5.47;;;26.20;78.10;;;;;;5123396;27;20028;-65
2021/06/28 12:17:14;;;;;;;14.30;7.28;;;26.30;77.80;;;;;;5097919;27;20029;-65
2021/06/28 12:19:43;;;;;;;11.45;6.97;;;26.30;77.80;;;;;;5118236;27;20047;-65
2021/06/28 12:22:12;;;;;;;12.68;7.18;;;26.30;77.60;;;;;;5109920;28;20028;-65
2021/06/28 12:24:38;;;;;;;17.52;6.28;;;26.20;77.50;;;;;;5102718;28;20084;-65
2021/06/28 12:27:09;;;;;;;14.48;7.03;;;26.30;78.10;;;;;;5111086;28;20475;-65
2021/06/28 12:29:49;;;;;;;14.63;7.95;;;26.20;78.00;;;;;;5110403;28;20393;-67
2021/06/28 12:32:19;;;;;;;15.85;7.65;;;26.30;78.10;;;;;;5125426;27;20036;-64
2021/06/28 12:34:52;;;;;;;11.80;7.55;;;26.40;78.70;;;;;;5123867;27;20022;-64
2021/06/28 12:37:32;;;;;;;17.00;9.33;;;26.40;78.60;;;;;;5117426;27;20117;-65
2021/06/28 12:40:29;;;;;;;15.80;8.73;;;26.40;77.70;;;;;;5124802;27;20265;-65
2021/06/28 12:42:58;;;;;;;15.45;9.18;;;26.40;77.90;;;;;;5123733;27;20031;-65
2021/06/28 12:45:31;;;;;;;19.10;8.82;;;26.40;77.70;;;;;;5121659;27;20061;-64
2021/06/28 12:47:57;;;;;;;23.23;9.38;;;26.40;78.30;;;;;;5108693;27;20024;-64
2021/06/28 12:50:29;;;;;;;17.95;8.15;;;26.40;77.90;;;;;;5121450;27;20039;-64